Time;durP1;ratioP1;P1;durP2;ratioP2;P2;SDS_P1;SDS_P2;PMS_P1;PMS_P2;Temp;Humidity;BMP_temperature;BMP_pressure;BME280_temperature;BME280_humidity;BME280_pressure;Samples;Min_cycle;Max_cycle;Signal;HPM_P1;HPM_P2
2023/03/17 00:00:03;;;;;;;22.33;12.95;;;5.10;99.90;;;3.90;100.00;97080.22;5013464;28;20404;-83
2023/03/17 00:02:29;;;;;;;23.05;13.73;;;5.10;99.90;;;3.89;100.00;97081.22;5013143;28;20435;-83
2023/03/17 00:04:55;;;;;;;25.83;13.02;;;5.10;99.90;;;3.88;100.00;97077.81;5013567;28;20416;-83
2023/03/17 00:07:21;;;;;;;22.92;11.75;;;5.10;99.90;;;3.88;100.00;97080.44;5013559;28;20404;-83
2023/03/17 00:09:48;;;;;;;21.60;12.63;;;5.10;99.90;;;3.88;100.00;97075.19;5013779;28;20548;-83
2023/03/17 00:12:16;;;;;;;20.40;12.77;;;5.10;99.90;;;3.91;100.00;97066.09;5013437;28;20874;-83
2023/03/17 00:14:43;;;;;;;25.15;13.68;;;5.10;99.90;;;3.91;100.00;97055.59;5013352;28;20401;-83
2023/03/17 00:17:12;;;;;;;24.80;13.98;;;5.10;99.90;;;3.95;100.00;97046.31;5013269;28;21323;-83
2023/03/17 00:19:40;;;;;;;24.83;13.57;;;5.10;99.90;;;3.96;100.00;97052.34;5013334;28;20818;-83
2023/03/17 00:22:16;;;;;;;22.25;13.30;;;5.20;99.90;;;4.00;100.00;97046.47;4995393;28;20404;-83
2023/03/17 00:24:42;;;;;;;22.85;13.65;;;5.20;99.90;;;4.00;100.00;97041.22;5013097;28;20400;-83
2023/03/17 00:27:12;;;;;;;25.23;13.80;;;5.20;99.90;;;4.05;100.00;97033.53;5013164;28;20773;-83
2023/03/17 00:29:38;;;;;;;24.63;14.50;;;5.20;99.90;;;4.10;100.00;97038.09;5012803;28;20404;-82
2023/03/17 00:32:08;;;;;;;25.95;14.77;;;5.30;99.90;;;4.12;100.00;97042.13;5012704;28;20813;-83
2023/03/17 00:34:35;;;;;;;27.45;16.00;;;5.30;99.90;;;4.16;100.00;97032.78;5012577;28;20475;-82
2023/03/17 00:37:00;;;;;;;20.73;12.25;;;5.30;99.90;;;4.25;100.00;97025.44;4995107;28;20459;-82
2023/03/17 00:39:26;;;;;;;19.58;11.65;;;5.40;99.90;;;4.35;100.00;97030.97;5012650;28;20463;-83
2023/03/17 00:41:52;;;;;;;16.53;11.13;;;5.50;99.90;;;4.44;100.00;97034.06;5012301;28;20401;-83
2023/03/17 00:44:20;;;;;;;16.20;10.52;;;5.60;99.90;;;4.49;100.00;97027.16;5012413;28;20416;-82
2023/03/17 00:46:46;;;;;;;15.80;10.77;;;5.60;99.90;;;4.51;100.00;97025.09;5012491;28;20762;-83
2023/03/17 00:49:16;;;;;;;18.98;11.85;;;5.70;99.90;;;4.51;100.00;97026.94;5012369;28;20401;-83
2023/03/17 00:51:42;;;;;;;23.02;13.35;;;5.70;99.90;;;4.49;100.00;97021.94;5012111;28;20401;-82
2023/03/17 00:54:09;;;;;;;17.37;10.90;;;5.60;99.90;;;4.57;100.00;97021.63;5012267;28;20546;-82
2023/03/17 00:56:37;;;;;;;16.65;10.68;;;5.70;99.90;;;4.59;100.00;97022.19;5012177;28;20404;-82
2023/03/17 00:59:03;;;;;;;17.90;12.15;;;5.70;99.90;;;4.61;100.00;97017.53;5012101;28;20413;-82
2023/03/17 01:01:31;;;;;;;18.92;11.00;;;5.80;99.90;;;4.60;100.00;97009.88;5011902;28;20437;-83
2023/03/17 01:03:57;;;;;;;16.60;10.87;;;5.70;99.90;;;4.59;100.00;97008.28;5012045;28;20449;-82
2023/03/17 01:06:23;;;;;;;16.58;10.50;;;5.70;99.90;;;4.64;100.00;97006.59;5012131;28;20401;-83
2023/03/17 01:08:49;;;;;;;16.75;10.02;;;5.80;99.90;;;4.66;100.00;96993.28;5011033;28;20415;-82
2023/03/17 01:11:18;;;;;;;14.68;10.38;;;5.80;99.90;;;4.77;100.00;97004.81;5011826;28;20413;-83
2023/03/17 01:13:44;;;;;;;14.98;9.98;;;5.80;99.90;;;4.78;100.00;96995.94;4994125;28;20413;-82
2023/03/17 01:16:11;;;;;;;14.30;9.82;;;5.90;99.90;;;4.83;100.00;96999.47;5011815;28;20444;-82
2023/03/17 01:18:38;;;;;;;16.50;10.55;;;5.90;99.90;;;4.83;100.00;96996.03;5011892;28;20405;-82
2023/03/17 01:21:05;;;;;;;15.52;10.63;;;5.90;99.90;;;4.85;100.00;97000.06;5011806;28;20408;-83
2023/03/17 01:23:32;;;;;;;20.00;10.05;;;6.00;99.90;;;4.80;100.00;96992.06;5011624;28;20455;-82
2023/03/17 01:25:57;;;;;;;16.05;10.27;;;5.90;99.90;;;4.80;100.00;96994.69;5011700;28;20475;-82
2023/03/17 01:28:24;;;;;;;13.75;9.00;;;5.90;99.90;;;4.78;100.00;96990.69;5011717;28;20405;-83
2023/03/17 01:30:50;;;;;;;16.08;9.95;;;5.90;99.90;;;4.74;100.00;96985.06;5011603;28;20421;-83
2023/03/17 01:33:16;;;;;;;19.27;9.70;;;5.90;99.90;;;4.73;100.00;96978.25;5011219;28;20448;-82
2023/03/17 01:35:44;;;;;;;15.82;9.05;;;5.80;99.90;;;4.73;100.00;96978.25;4993997;28;20456;-83
2023/03/17 01:38:11;;;;;;;16.75;9.60;;;5.80;99.90;;;4.72;100.00;96981.09;5011495;28;20493;-83
2023/03/17 01:40:43;;;;;;;17.80;10.70;;;5.80;99.90;;;4.68;100.00;96985.97;5011449;28;20409;-83
2023/03/17 01:43:21;;;;;;;13.55;9.52;;;5.80;99.90;;;4.66;100.00;96980.94;5011259;28;20471;-83
2023/03/17 01:46:24;;;;;;;15.43;10.27;;;5.80;99.90;;;4.65;100.00;96975.94;5011517;28;20458;-83
2023/03/17 01:49:10;;;;;;;16.35;10.38;;;5.80;99.90;;;4.62;100.00;96971.13;5011561;28;20674;-83
2023/03/17 01:51:45;;;;;;;15.68;9.98;;;5.70;99.90;;;4.61;100.00;96970.34;5010985;28;21160;-83
2023/03/17 01:54:15;;;;;;;14.80;10.02;;;5.80;99.90;;;4.59;100.00;96961.09;5011234;28;20448;-83
2023/03/17 01:56:45;;;;;;;18.33;10.67;;;5.70;99.90;;;4.58;100.00;96964.75;4993701;28;20440;-83
2023/03/17 01:59:18;;;;;;;14.63;9.98;;;5.70;99.90;;;4.54;100.00;96959.16;5011239;28;20397;-83
2023/03/17 02:01:48;;;;;;;18.65;10.32;;;5.70;99.90;;;4.52;100.00;96952.53;5011020;28;20409;-83
2023/03/17 02:04:15;;;;;;;15.50;10.18;;;5.70;99.90;;;4.49;100.00;96959.03;5011039;28;20397;-83
2023/03/17 02:06:43;;;;;;;18.37;10.00;;;5.60;99.90;;;4.46;100.00;96962.06;5011145;28;20423;-83
2023/03/17 02:09:09;;;;;;;15.27;9.27;;;5.60;99.90;;;4.38;100.00;96965.00;5010979;28;20911;-83
2023/03/17 02:11:37;;;;;;;18.60;9.80;;;5.50;99.90;;;4.32;100.00;96965.91;5010637;28;20409;-83
2023/03/17 02:14:03;;;;;;;16.48;9.77;;;5.50;99.90;;;4.27;100.00;96963.94;5010942;28;20905;-83
2023/03/17 02:16:31;;;;;;;14.65;9.05;;;5.50;99.90;;;4.23;100.00;96956.75;5011043;28;20441;-83
2023/03/17 02:18:57;;;;;;;16.92;10.05;;;5.40;99.90;;;4.23;100.00;96959.34;5010667;28;20413;-83
2023/03/17 02:21:46;;;;;;;14.73;9.77;;;5.40;99.90;;;4.20;100.00;96955.38;5010696;28;20918;-83
2023/03/17 02:24:25;;;;;;;15.10;9.90;;;5.40;99.90;;;4.17;100.00;96961.06;5010722;28;20587;-83
2023/03/17 02:26:54;;;;;;;14.90;9.15;;;5.40;99.90;;;4.14;100.00;96961.47;5010870;28;20393;-83
2023/03/17 02:29:22;;;;;;;16.08;9.45;;;5.30;99.90;;;4.08;100.00;96962.38;5010778;28;20782;-83
2023/03/17 02:31:50;;;;;;;12.55;8.57;;;5.30;99.90;;;4.03;100.00;96964.84;5009777;28;22454;-83
2023/03/17 02:34:16;;;;;;;13.65;8.65;;;5.20;99.90;;;3.98;100.00;96959.47;5010637;28;20503;-83
2023/03/17 02:36:42;;;;;;;13.95;9.00;;;5.20;99.90;;;3.95;100.00;96959.09;5010746;28;20921;-83
2023/03/17 02:39:09;;;;;;;13.63;8.93;;;5.10;99.90;;;3.91;100.00;96955.34;5010649;28;20401;-83
2023/03/17 02:41:36;;;;;;;14.63;8.80;;;5.10;99.90;;;3.89;100.00;96961.59;5010446;28;20442;-83
2023/03/17 02:44:02;;;;;;;17.27;9.52;;;5.10;99.90;;;3.90;100.00;96957.16;5010609;28;20404;-83
2023/03/17 02:46:28;;;;;;;18.52;10.20;;;5.10;99.90;;;3.89;100.00;96958.97;5010707;28;20401;-83
2023/03/17 02:48:54;;;;;;;17.35;9.20;;;5.00;99.90;;;3.83;100.00;96951.19;5010543;28;20401;-83
2023/03/17 02:51:20;;;;;;;13.45;8.57;;;5.00;99.90;;;3.81;100.00;96951.41;5010354;28;20456;-83
2023/03/17 02:53:46;;;;;;;13.00;8.93;;;5.00;99.90;;;3.77;100.00;96947.63;5010437;28;20813;-82
2023/03/17 02:56:13;;;;;;;14.35;8.65;;;4.90;99.90;;;3.74;100.00;96940.22;5010537;28;20409;-83
2023/03/17 02:58:39;;;;;;;11.75;8.32;;;4.90;99.90;;;3.75;100.00;96944.44;5010573;28;20401;-83
2023/03/17 03:01:05;;;;;;;16.85;9.30;;;4.90;99.90;;;3.77;100.00;96936.34;5010408;28;20393;-83
2023/03/17 03:03:31;;;;;;;17.90;9.50;;;5.00;99.90;;;3.79;100.00;96942.97;5010258;28;20405;-83
2023/03/17 03:05:57;;;;;;;11.60;8.20;;;5.00;99.90;;;3.80;100.00;96941.16;5010417;28;20405;-83
2023/03/17 03:08:25;;;;;;;12.60;8.27;;;5.00;99.90;;;3.81;100.00;96946.19;5010451;28;20404;-83
2023/03/17 03:10:51;;;;;;;14.05;8.70;;;5.00;99.90;;;3.84;100.00;96945.72;5010294;28;20487;-83
2023/03/17 03:13:18;;;;;;;16.40;9.55;;;5.00;99.90;;;3.85;100.00;96938.66;5010175;28;20490;-83
2023/03/17 03:15:44;;;;;;;12.25;8.38;;;5.10;99.90;;;3.81;100.00;96946.19;5010436;28;20408;-83
2023/03/17 03:18:11;;;;;;;12.27;8.55;;;5.00;99.90;;;3.79;100.00;96942.16;5010374;28;20411;-83
2023/03/17 03:20:37;;;;;;;13.35;8.23;;;5.00;99.90;;;3.78;100.00;96943.19;5010261;28;21030;-83
2023/03/17 03:23:03;;;;;;;12.57;8.82;;;4.90;99.90;;;3.74;100.00;96936.78;5010040;28;20411;-82
2023/03/17 03:25:29;;;;;;;13.57;8.60;;;4.90;99.90;;;3.69;100.00;96926.97;5010212;28;20400;-83
2023/03/17 03:27:55;;;;;;;15.23;7.95;;;4.90;99.90;;;3.66;100.00;96926.63;5010319;28;20467;-83
2023/03/17 03:30:22;;;;;;;10.40;7.30;;;4.80;99.90;;;3.61;100.00;96939.56;5010361;28;20568;-82
2023/03/17 03:32:48;;;;;;;13.82;8.00;;;4.80;99.90;;;3.58;100.00;96938.16;5015514;28;20455;-82
2023/03/17 03:35:14;;;;;;;11.52;7.30;;;4.70;99.90;;;3.52;100.00;96930.41;5058784;22;20464;-73
2023/03/17 03:37:40;;;;;;;17.52;8.05;;;4.70;99.90;;;3.45;100.00;96936.50;5053359;28;20416;-74
2023/03/17 03:40:07;;;;;;;12.45;7.68;;;4.70;99.90;;;3.36;100.00;96929.94;5053456;28;20425;-73
2023/03/17 03:42:33;;;;;;;11.82;7.43;;;4.60;99.90;;;3.32;100.00;96930.56;5035127;28;20413;-73
2023/03/17 03:44:59;;;;;;;10.43;7.38;;;4.50;99.90;;;3.25;100.00;96933.25;5053224;28;20766;-73
2023/03/17 03:47:26;;;;;;;12.67;7.20;;;4.50;99.90;;;3.19;100.00;96931.50;5053309;28;20500;-73
2023/03/17 03:49:52;;;;;;;13.00;7.40;;;4.40;99.90;;;3.15;100.00;96934.78;5053132;28;20425;-73
2023/03/17 03:52:18;;;;;;;13.93;7.73;;;4.40;99.90;;;3.07;100.00;96931.44;5052741;28;20497;-73
2023/03/17 03:54:44;;;;;;;15.00;7.55;;;4.30;99.90;;;3.06;100.00;96935.06;5052965;28;20432;-73
2023/03/17 03:57:10;;;;;;;14.38;8.15;;;4.30;99.90;;;3.03;100.00;96932.03;5052995;28;20456;-74
2023/03/17 03:59:37;;;;;;;13.07;7.60;;;4.30;99.90;;;3.01;100.00;96926.22;5052875;28;20401;-73
2023/03/17 04:02:03;;;;;;;13.73;7.90;;;4.20;99.90;;;2.98;100.00;96931.91;5052732;28;20404;-73
2023/03/17 04:04:30;;;;;;;11.40;7.60;;;4.20;99.90;;;2.91;100.00;96928.53;5052931;28;20466;-73
2023/03/17 04:06:56;;;;;;;12.65;7.78;;;4.20;99.90;;;2.88;100.00;96926.34;5052794;28;20811;-73
2023/03/17 04:09:22;;;;;;;17.33;8.50;;;4.10;99.90;;;2.88;100.00;96926.34;5052840;28;20439;-73
2023/03/17 04:11:48;;;;;;;16.05;8.98;;;4.10;99.90;;;2.86;100.00;96925.75;5052328;28;20479;-72
2023/03/17 04:14:14;;;;;;;19.45;12.05;;;4.10;99.90;;;2.80;100.00;96919.56;5052682;28;20401;-73
2023/03/17 04:16:40;;;;;;;13.70;9.10;;;4.10;99.90;;;2.76;100.00;96922.84;5052661;28;20421;-73
2023/03/17 04:19:06;;;;;;;13.65;8.98;;;4.00;99.90;;;2.73;100.00;96924.03;5052535;28;20922;-73
2023/03/17 04:21:33;;;;;;;14.02;8.93;;;4.00;99.90;;;2.71;100.00;96923.44;5034315;28;20426;-73
2023/03/17 04:23:59;;;;;;;12.07;7.97;;;4.00;99.90;;;2.66;100.00;96911.03;5052238;28;20446;-74
2023/03/17 04:26:25;;;;;;;14.87;8.93;;;3.90;99.90;;;2.67;100.00;96911.84;5052439;28;20580;-72
2023/03/17 04:28:51;;;;;;;17.37;8.60;;;3.90;99.90;;;2.62;100.00;96907.25;5052507;28;20781;-73
2023/03/17 04:31:17;;;;;;;14.43;8.10;;;3.90;99.90;;;2.59;100.00;96912.91;5052278;28;20417;-73
2023/03/17 04:33:43;;;;;;;13.20;8.23;;;3.80;99.90;;;2.61;100.00;96915.31;5052074;28;20519;-74
2023/03/17 04:36:17;;;;;;;15.23;7.70;;;3.80;99.90;;;2.57;100.00;96912.28;5052331;28;20409;-73
2023/03/17 04:38:44;;;;;;;12.10;7.67;;;3.90;99.90;;;2.58;100.00;96900.03;5052299;28;20484;-73
2023/03/17 04:41:10;;;;;;;11.77;7.70;;;3.80;99.90;;;2.58;100.00;96902.66;5052173;28;20895;-72
2023/03/17 04:43:36;;;;;;;15.50;8.30;;;3.80;99.90;;;2.60;100.00;96904.03;5051655;28;20405;-73
2023/03/17 04:46:02;;;;;;;13.85;7.53;;;3.80;99.90;;;2.58;100.00;96900.03;5051981;28;20410;-72
2023/03/17 04:48:28;;;;;;;12.10;7.28;;;3.80;99.90;;;2.55;100.00;96903.09;5052027;28;20756;-73
2023/03/17 04:50:54;;;;;;;13.27;8.23;;;3.80;99.90;;;2.52;100.00;96901.69;5051913;28;20468;-73
2023/03/17 04:53:19;;;;;;;10.77;7.33;;;3.80;99.90;;;2.47;100.00;96909.38;5048848;28;20461;-73
2023/03/17 04:55:47;;;;;;;11.15;7.50;;;3.70;99.90;;;2.44;100.00;96895.91;5032257;28;20433;-74
2023/03/17 04:58:13;;;;;;;11.50;6.88;;;3.70;99.90;;;2.44;100.00;96898.53;5049590;28;20911;-74
2023/03/17 05:00:38;;;;;;;13.13;7.05;;;3.70;99.90;;;2.45;100.00;96897.53;5051914;28;20416;-75
2023/03/17 05:03:05;;;;;;;12.40;7.43;;;3.70;99.90;;;2.46;100.00;96897.31;5054081;28;20413;-73
2023/03/17 05:05:31;;;;;;;8.00;6.15;;;3.70;99.90;;;2.37;100.00;96892.56;5049409;28;20461;-73
2023/03/17 05:07:57;;;;;;;14.00;7.57;;;3.60;99.90;;;2.34;100.00;96891.97;5029209;28;20418;-74
2023/03/17 05:10:23;;;;;;;12.95;7.38;;;3.60;99.90;;;2.35;100.00;96887.53;5048953;28;20421;-74
2023/03/17 05:12:50;;;;;;;12.75;6.75;;;3.60;99.90;;;2.31;100.00;96887.16;5050547;28;20497;-74
2023/03/17 05:15:16;;;;;;;9.55;6.45;;;3.60;99.90;;;2.31;100.00;96888.97;5051309;28;20428;-74
2023/03/17 05:17:42;;;;;;;10.80;6.32;;;3.60;99.90;;;2.26;100.00;96889.59;5049494;28;20417;-74
2023/03/17 05:20:09;;;;;;;10.67;6.40;;;3.50;99.90;;;2.23;100.00;96889.22;5050380;28;20404;-74
2023/03/17 05:22:36;;;;;;;10.68;6.18;;;3.50;99.90;;;2.23;100.00;96891.84;5051544;28;20433;-74
2023/03/17 05:25:02;;;;;;;11.13;6.93;;;3.50;99.90;;;2.20;100.00;96887.03;5050915;28;20407;-75
2023/03/17 05:27:28;;;;;;;13.00;6.60;;;3.50;99.90;;;2.20;100.00;96887.81;5033301;28;20890;-74
2023/03/17 05:29:56;;;;;;;8.87;5.87;;;3.40;99.90;;;2.19;100.00;96888.84;5061384;28;20405;-73
2023/03/17 05:32:22;;;;;;;10.15;6.35;;;3.40;99.90;;;2.15;100.00;96900.72;5069910;28;20411;-73
2023/03/17 05:34:49;;;;;;;9.60;6.70;;;3.40;99.90;;;2.18;100.00;96908.13;5070974;28;20416;-74
2023/03/17 05:37:14;;;;;;;8.80;5.60;;;3.40;99.90;;;2.16;100.00;96904.13;5071113;28;20827;-74
2023/03/17 05:39:41;;;;;;;12.30;6.65;;;3.50;99.90;;;2.18;100.00;96905.50;5058284;28;20916;-74
2023/03/17 05:42:07;;;;;;;11.17;6.00;;;3.40;99.90;;;2.16;100.00;96904.13;5050872;28;20405;-74
2023/03/17 05:44:33;;;;;;;10.93;6.90;;;3.40;99.90;;;2.20;100.00;96906.09;5050705;28;20887;-74
2023/03/17 05:47:00;;;;;;;10.93;6.32;;;3.40;99.90;;;2.20;100.00;96897.47;5049688;28;20488;-74
2023/03/17 05:49:27;;;;;;;12.13;6.63;;;3.40;99.90;;;2.21;100.00;96893.84;5050168;28;20400;-75
2023/03/17 05:51:54;;;;;;;10.48;6.30;;;3.50;99.90;;;2.26;100.00;96894.81;5050011;28;20422;-75
2023/03/17 05:54:21;;;;;;;9.90;7.03;;;3.50;99.90;;;2.28;100.00;96897.22;5049754;28;20500;-74
2023/03/17 05:56:47;;;;;;;10.80;6.80;;;3.50;99.90;;;2.31;100.00;96888.97;5050597;28;20891;-74
2023/03/17 05:59:15;;;;;;;9.40;6.43;;;3.60;99.90;;;2.34;100.00;96889.34;5050238;28;20459;-72
2023/03/17 06:01:41;;;;;;;11.67;6.87;;;3.60;99.90;;;2.37;100.00;96893.34;5050231;28;20489;-75
2023/03/17 06:04:08;;;;;;;10.85;6.43;;;3.60;99.90;;;2.40;100.00;96892.94;5050269;28;20435;-74
2023/03/17 06:06:34;;;;;;;11.65;7.10;;;3.60;99.90;;;2.42;100.00;96877.03;5047661;28;20406;-74
2023/03/17 06:09:01;;;;;;;12.13;6.82;;;3.70;99.90;;;2.46;100.00;96880.84;5050234;28;20437;-75
2023/03/17 06:11:27;;;;;;;11.98;7.13;;;3.70;99.90;;;2.46;100.00;96880.84;5049799;28;20459;-74
2023/03/17 06:13:53;;;;;;;11.68;7.05;;;3.70;99.90;;;2.50;100.00;96897.69;5050009;28;20401;-74
2023/03/17 06:16:19;;;;;;;14.02;7.15;;;3.70;99.90;;;2.51;100.00;96905.31;5050017;28;20447;-74
2023/03/17 06:18:45;;;;;;;11.90;7.25;;;3.70;99.90;;;2.55;100.00;96903.09;5049053;28;20401;-75
2023/03/17 06:21:13;;;;;;;11.43;7.40;;;3.80;99.90;;;2.59;100.00;96899.03;5049127;28;20468;-74
2023/03/17 06:23:39;;;;;;;16.43;8.80;;;3.80;99.90;;;2.62;100.00;96896.00;5049954;28;20550;-74
2023/03/17 06:26:05;;;;;;;17.63;7.97;;;3.80;99.90;;;2.63;100.00;96905.44;5059735;28;20433;-74
2023/03/17 06:28:32;;;;;;;14.52;7.97;;;3.80;99.90;;;2.65;100.00;96909.44;5057774;28;20484;-74
2023/03/17 06:30:58;;;;;;;12.23;7.63;;;3.80;99.90;;;2.66;100.00;96916.25;5049736;28;20440;-74
2023/03/17 06:33:24;;;;;;;12.17;7.67;;;3.90;99.90;;;2.70;100.00;96906.19;5049427;28;20525;-74
2023/03/17 06:35:51;;;;;;;12.17;7.37;;;3.90;99.90;;;2.75;100.00;96916.00;5049961;28;20493;-74
2023/03/17 06:38:19;;;;;;;13.60;7.97;;;4.00;99.90;;;2.80;100.00;96914.34;5028260;28;20789;-73
2023/03/17 06:40:45;;;;;;;9.73;7.03;;;4.00;99.90;;;2.88;100.00;96902.81;5066571;28;20529;-74
2023/03/17 06:43:11;;;;;;;14.63;8.10;;;4.10;99.90;;;2.97;100.00;96901.53;5059331;28;20474;-74
2023/03/17 06:45:37;;;;;;;12.23;7.65;;;4.10;99.90;;;3.06;100.00;96903.66;5057116;28;20501;-74
2023/03/17 06:48:04;;;;;;;11.37;8.27;;;4.20;99.90;;;3.15;100.00;96893.75;5061957;28;20729;-74
2023/03/17 06:50:30;;;;;;;13.75;8.43;;;4.30;99.90;;;3.28;100.00;96895.41;5054983;28;20463;-72
2023/03/17 06:52:56;;;;;;;14.38;8.00;;;4.40;99.90;;;3.42;100.00;96895.06;5058802;28;20403;-73
2023/03/17 06:55:23;;;;;;;11.30;7.35;;;4.50;99.90;;;3.59;100.00;96900.53;5055763;28;20405;-73
2023/03/17 06:57:49;;;;;;;11.18;7.38;;;4.70;99.90;;;3.74;100.00;96900.16;5064132;28;20407;-73
2023/03/17 07:00:17;;;;;;;9.55;6.75;;;4.90;99.90;;;3.88;100.00;96899.78;5054441;28;20400;-74
2023/03/17 07:02:43;;;;;;;13.00;6.93;;;5.00;99.90;;;4.01;100.00;96896.19;5062754;28;20430;-74
2023/03/17 07:05:09;;;;;;;9.23;6.50;;;5.10;99.90;;;4.16;100.00;96906.25;5058742;28;20891;-73
2023/03/17 07:07:35;;;;;;;12.13;6.90;;;5.20;99.90;;;4.28;100.00;96905.28;5068862;28;20400;-74
2023/03/17 07:10:02;;;;;;;8.57;6.15;;;5.40;99.90;;;4.40;100.00;96902.69;5057124;28;20402;-74
2023/03/17 07:12:29;;;;;;;9.15;6.35;;;5.50;99.90;;;4.51;100.00;96914.25;5060881;28;20396;-74
2023/03/17 07:14:56;;;;;;;12.93;6.85;;;5.60;99.90;;;4.61;100.00;96920.53;5045951;28;20409;-73
2023/03/17 07:17:22;;;;;;;12.00;7.03;;;5.70;99.90;;;4.74;100.00;96923.97;5067015;28;20869;-75
2023/03/17 07:19:48;;;;;;;9.63;6.60;;;5.80;99.90;;;4.87;100.00;96924.59;5057004;28;20413;-73
2023/03/17 07:22:15;;;;;;;13.23;7.35;;;5.90;99.90;;;4.92;100.00;96910.78;5069312;28;20401;-75
2023/03/17 07:24:41;;;;;;;12.52;7.45;;;6.00;99.90;;;5.02;100.00;96919.69;5058010;28;20953;-74
2023/03/17 07:27:08;;;;;;;11.68;7.22;;;6.10;99.90;;;5.09;100.00;96924.84;5068092;28;20430;-74
2023/03/17 07:29:35;;;;;;;12.95;8.30;;;6.10;99.90;;;5.16;100.00;96928.16;5068067;28;20403;-75
2023/03/17 07:32:05;;;;;;;12.88;8.35;;;6.20;99.90;;;5.21;100.00;96925.63;5058173;28;20474;-74
2023/03/17 07:34:31;;;;;;;11.27;7.40;;;6.20;99.90;;;5.26;100.00;96925.72;5061965;28;20862;-73
2023/03/17 07:36:57;;;;;;;12.52;8.45;;;6.30;99.90;;;5.34;100.00;96925.41;5069706;28;20837;-74
2023/03/17 07:39:23;;;;;;;11.05;7.47;;;6.40;99.90;;;5.40;100.00;96927.13;5058746;28;20486;-74
2023/03/17 07:41:53;;;;;;;14.70;7.82;;;6.40;99.90;;;5.43;100.00;96920.59;5045951;28;20431;-74
2023/03/17 07:44:21;;;;;;;15.57;8.15;;;6.50;99.90;;;5.43;100.00;96920.59;5066323;28;20400;-74
2023/03/17 07:46:49;;;;;;;12.50;7.68;;;6.50;99.90;;;5.53;100.00;96923.47;5056406;28;20409;-73
2023/03/17 07:49:15;;;;;;;10.70;7.53;;;6.50;99.90;;;5.54;100.00;96913.75;5068555;28;20402;-73
2023/03/17 07:51:42;;;;;;;14.77;8.60;;;6.60;99.90;;;5.57;100.00;96914.06;5060657;28;20472;-74
2023/03/17 07:54:09;;;;;;;12.25;8.00;;;6.60;99.90;;;5.58;100.00;96909.63;5061222;28;20493;-74
2023/03/17 07:56:35;;;;;;;12.18;7.47;;;6.60;99.90;;;5.63;100.00;96907.94;5056528;28;20437;-74
2023/03/17 07:59:01;;;;;;;13.97;7.70;;;6.70;99.90;;;5.65;100.00;96916.34;5069389;28;20396;-74
2023/03/17 08:01:29;;;;;;;11.60;7.18;;;6.70;99.90;;;5.63;100.00;96912.38;5058855;28;20404;-74
2023/03/17 08:03:56;;;;;;;13.95;7.20;;;6.70;99.90;;;5.75;100.00;96908.69;5062764;28;20401;-73
2023/03/17 08:06:24;;;;;;;13.20;6.35;;;6.80;99.90;;;5.94;100.00;96905.94;5048481;28;20407;-75
2023/03/17 08:08:50;;;;;;;7.25;4.30;;;6.90;99.90;;;6.12;100.00;96911.81;5056049;28;20409;-74
2023/03/17 08:11:16;;;;;;;7.03;4.10;;;7.10;99.90;;;6.26;100.00;96914.97;5067763;28;21001;-75
2023/03/17 08:13:42;;;;;;;6.57;4.00;;;7.20;99.90;;;6.40;100.00;96924.16;5060614;28;20395;-74
2023/03/17 08:16:08;;;;;;;5.35;3.53;;;7.30;99.90;;;6.55;100.00;96918.38;5065724;28;20457;-75
2023/03/17 08:18:35;;;;;;;5.82;3.65;;;7.50;99.90;;;6.72;100.00;96921.03;5056565;28;20409;-74
2023/03/17 08:21:03;;;;;;;5.93;3.55;;;7.60;99.90;;;6.93;100.00;96915.84;5059367;28;20416;-74
2023/03/17 08:23:29;;;;;;;5.93;3.38;;;7.90;99.90;;;7.03;100.00;96907.31;5040746;28;20451;-74
2023/03/17 08:25:56;;;;;;;7.90;3.83;;;8.00;99.90;;;7.06;100.00;96912.13;5052681;28;20398;-74
2023/03/17 08:28:22;;;;;;;10.77;4.45;;;8.10;99.90;;;7.20;100.00;96912.59;5066821;28;20392;-74
2023/03/17 08:30:49;;;;;;;10.87;4.70;;;8.10;99.90;;;7.33;100.00;96910.41;5055454;28;20417;-75
2023/03/17 08:33:15;;;;;;;8.90;4.45;;;8.20;99.90;;;7.41;100.00;96908.41;5066742;28;20898;-73
2023/03/17 08:35:42;;;;;;;7.13;4.40;;;8.30;99.90;;;7.38;100.00;96907.84;5054250;28;20417;-75
2023/03/17 08:38:10;;;;;;;7.88;4.70;;;8.30;99.90;;;7.54;100.00;96902.78;5061704;28;20412;-72
2023/03/17 08:40:37;;;;;;;8.05;3.50;;;8.40;99.90;;;7.64;100.00;96903.72;5058315;28;20398;-72
2023/03/17 08:43:03;;;;;;;10.35;3.65;;;8.50;99.90;;;7.65;100.00;96901.91;5068065;28;20485;-73
2023/03/17 08:45:29;;;;;;;7.72;3.70;;;8.60;99.90;;;7.64;100.00;96909.00;5059190;28;20930;-74
2023/03/17 08:47:56;;;;;;;4.55;2.60;;;8.60;99.90;;;7.72;100.00;96905.16;5061230;28;20401;-73
2023/03/17 08:50:23;;;;;;;3.85;2.70;;;8.70;99.90;;;8.04;100.00;96894.72;5066451;28;20412;-73
2023/03/17 08:52:50;;;;;;;5.90;2.50;;;8.90;99.90;;;8.05;100.00;96891.81;5054852;28;20958;-73
2023/03/17 08:55:18;;;;;;;4.50;2.60;;;9.30;99.90;;;8.40;100.00;96894.09;5066206;28;20890;-73
2023/03/17 08:57:45;;;;;;;5.20;2.42;;;9.40;99.90;;;8.68;100.00;96893.03;5057659;28;20717;-73
2023/03/17 09:00:18;;;;;;;7.90;2.50;;;9.60;99.90;;;8.78;100.00;96903.69;5036942;28;20761;-71
2023/03/17 09:05:44;;;;;;;5.57;2.08;;;9.90;99.90;;;9.35;100.00;96894.31;5027068;22;20519;-72
2023/03/17 09:08:10;;;;;;;7.70;2.30;;;10.10;99.90;;;9.40;100.00;96883.81;5024742;28;20777;-72
2023/03/17 09:10:38;;;;;;;4.03;2.40;;;10.30;99.90;;;9.76;100.00;96887.41;5024999;28;21602;-74
2023/03/17 09:13:04;;;;;;;4.13;2.15;;;10.50;99.90;;;9.93;100.00;96880.88;5027854;28;20411;-74
2023/03/17 09:15:32;;;;;;;6.45;2.50;;;10.70;99.90;;;10.03;100.00;96880.13;5019959;28;20411;-70
2023/03/17 09:17:58;;;;;;;3.65;2.53;;;11.10;95.80;;;10.26;100.00;96863.00;5017862;28;20416;-74
2023/03/17 09:20:24;;;;;;;3.90;2.40;;;11.10;99.90;;;10.41;100.00;96866.50;5020816;28;20869;-73
2023/03/17 09:22:50;;;;;;;4.03;2.10;;;11.20;99.90;;;10.28;100.00;96866.22;5021997;28;20498;-73
2023/03/17 09:25:17;;;;;;;3.00;2.20;;;11.20;99.90;;;10.38;100.00;96866.22;5019894;28;20966;-74
2023/03/17 09:27:45;;;;;;;3.10;2.08;;;11.30;99.90;;;10.41;100.00;96866.50;5021318;28;20888;-74
2023/03/17 09:30:15;;;;;;;5.55;2.40;;;11.40;99.90;;;10.41;100.00;96877.06;5021045;28;20405;-74
2023/03/17 09:32:41;;;;;;;3.73;2.17;;;11.40;99.90;;;10.64;100.00;96865.19;5016185;28;20489;-74
2023/03/17 09:35:08;;;;;;;7.25;2.22;;;11.50;99.90;;;10.61;100.00;96865.72;5020216;28;20396;-75
2023/03/17 09:37:34;;;;;;;2.57;1.80;;;11.50;99.90;;;10.76;100.00;96871.00;5021723;28;20471;-74
2023/03/17 09:40:01;;;;;;;4.72;2.55;;;11.60;99.90;;;10.66;100.00;96873.69;5020016;28;20963;-74
2023/03/17 09:42:49;;;;;;;3.28;1.70;;;11.60;99.90;;;10.77;100.00;96875.25;5020609;28;20551;-75
2023/03/17 09:45:28;;;;;;;3.67;1.90;;;11.60;99.90;;;10.80;100.00;96869.44;5021009;28;20402;-75
2023/03/17 09:48:42;;;;;;;4.30;2.30;;;11.60;99.90;;;10.94;100.00;96866.25;5021858;28;20436;-73
2023/03/17 09:51:11;;;;;;;3.67;1.98;;;11.70;99.90;;;11.05;100.00;96870.50;5014792;28;20428;-74
2023/03/17 09:53:50;;;;;;;5.50;2.75;;;11.80;99.90;;;11.11;100.00;96867.59;5019290;28;20404;-74
2023/03/17 09:56:18;;;;;;;6.85;3.30;;;11.90;99.90;;;11.22;100.00;96873.63;5001839;28;20430;-75
2023/03/17 09:58:51;;;;;;;8.98;3.28;;;12.00;99.90;;;11.37;100.00;96868.31;5020842;28;20494;-74
2023/03/17 10:01:18;;;;;;;5.38;2.85;;;12.10;99.90;;;11.58;100.00;96866.41;5022041;28;20407;-75
2023/03/17 10:03:44;;;;;;;7.80;2.97;;;12.20;99.90;;;11.79;100.00;96869.84;5019891;28;20447;-74
2023/03/17 10:06:27;;;;;;;7.65;3.05;;;12.50;99.90;;;12.33;100.00;96875.91;5019058;28;20408;-71
2023/03/17 10:08:59;;;;;;;4.80;2.40;;;12.90;99.90;;;12.50;100.00;96870.25;5017172;28;20415;-72
2023/03/17 10:11:38;;;;;;;5.78;2.70;;;13.20;99.90;;;12.62;100.00;96870.72;5010356;28;20456;-72
2023/03/17 10:14:22;;;;;;;4.40;2.90;;;13.40;99.90;;;12.97;100.00;96864.34;5010448;28;20408;-72
2023/03/17 10:16:55;;;;;;;5.15;2.58;;;13.60;99.90;;;13.45;100.00;96867.91;5009876;28;20396;-72
2023/03/17 10:19:28;;;;;;;6.47;2.05;;;14.20;99.90;;;14.06;100.00;96861.09;5010194;28;20405;-72
2023/03/17 10:21:59;;;;;;;4.82;2.10;;;14.80;99.90;;;14.53;100.00;96854.88;5009905;28;20404;-73